Time;durP1;ratioP1;P1;durP2;ratioP2;P2;SDS_P1;SDS_P2;PMS_P1;PMS_P2;Temp;Humidity;BMP_temperature;BMP_pressure;BME280_temperature;BME280_humidity;BME280_pressure;Samples;Min_cycle;Max_cycle;Signal;HPM_P1;HPM_P2
2021/11/14 00:01:14;;;;;;;;;12.00;10.00;;;;;;;;5023881;28;45368;-70
2021/11/14 00:03:40;;;;;;;;;10.00;7.67;;;;;;;;5022653;28;45552;-69
2021/11/14 00:06:06;;;;;;;;;11.00;10.00;;;;;;;;5017960;28;45268;-70
2021/11/14 00:08:31;;;;;;;;;9.00;8.75;;;;;;;;5023978;28;45430;-70
2021/11/14 00:10:58;;;;;;;;;10.00;10.00;;;;;;;;5019425;28;45396;-70
2021/11/14 00:13:24;;;;;;;;;12.25;9.25;;;;;;;;5022321;28;45325;-69
2021/11/14 00:15:50;;;;;;;;;11.75;10.25;;;;;;;;5032091;28;45510;-69
2021/11/14 00:18:15;;;;;;;;;12.75;9.50;;;;;;;;5031996;28;45396;-69
2021/11/14 00:20:41;;;;;;;;;13.00;8.50;;;;;;;;5021784;28;45600;-69
2021/11/14 00:23:07;;;;;;;;;9.75;6.50;;;;;;;;5021803;28;45691;-69
2021/11/14 00:25:32;;;;;;;;;10.00;10.00;;;;;;;;5024198;28;45363;-69
2021/11/14 00:27:57;;;;;;;;;12.00;10.67;;;;;;;;5024875;28;45397;-69
2021/11/14 00:30:22;;;;;;;;;13.33;12.33;;;;;;;;5023795;28;45880;-69
2021/11/14 00:32:51;;;;;;;;;11.75;9.00;;;;;;;;5036741;28;45482;-69
2021/11/14 00:35:16;;;;;;;;;11.50;9.50;;;;;;;;5021144;28;45324;-69
2021/11/14 00:37:41;;;;;;;;;10.00;7.67;;;;;;;;5030235;28;45328;-70
2021/11/14 00:40:09;;;;;;;;;14.25;9.00;;;;;;;;5024692;28;45590;-70
2021/11/14 00:42:34;;;;;;;;;9.25;8.25;;;;;;;;5027289;28;45490;-70
2021/11/14 00:45:00;;;;;;;;;9.00;9.00;;;;;;;;5028128;28;45331;-69
2021/11/14 00:47:25;;;;;;;;;7.25;7.00;;;;;;;;5029593;28;45528;-70
2021/11/14 00:49:50;;;;;;;;;15.75;10.50;;;;;;;;5023085;28;46169;-70
2021/11/14 00:52:16;;;;;;;;;13.25;10.75;;;;;;;;5029179;28;45587;-70
2021/11/14 00:54:41;;;;;;;;;11.67;6.67;;;;;;;;5031540;28;45486;-69
2021/11/14 00:57:06;;;;;;;;;9.00;9.00;;;;;;;;5029809;28;45441;-69
2021/11/14 00:59:31;;;;;;;;;10.33;9.67;;;;;;;;5036394;28;46049;-70
2021/11/14 01:01:57;;;;;;;;;12.33;8.67;;;;;;;;5031336;28;46025;-70
2021/11/14 01:04:22;;;;;;;;;9.00;8.75;;;;;;;;5031435;28;45504;-69
2021/11/14 01:06:47;;;;;;;;;11.00;10.00;;;;;;;;5031259;28;45980;-70
2021/11/14 01:09:12;;;;;;;;;14.67;12.33;;;;;;;;5034912;28;46351;-70
2021/11/14 01:11:39;;;;;;;;;11.75;9.75;;;;;;;;5021277;28;45597;-70
2021/11/14 01:14:04;;;;;;;;;11.00;7.33;;;;;;;;5019682;28;45484;-69
2021/11/14 01:16:29;;;;;;;;;13.67;10.00;;;;;;;;5031730;28;45585;-70
2021/11/14 01:18:54;;;;;;;;;10.67;8.00;;;;;;;;5031077;28;46492;-69
2021/11/14 01:21:20;;;;;;;;;13.00;11.00;;;;;;;;5034783;28;45379;-70
2021/11/14 01:23:46;;;;;;;;;12.50;11.00;;;;;;;;5029124;28;45489;-70
2021/11/14 01:26:12;;;;;;;;;10.00;9.00;;;;;;;;5020574;28;45498;-70
2021/11/14 01:28:37;;;;;;;;;9.00;8.00;;;;;;;;5024353;28;45512;-70
2021/11/14 01:31:03;;;;;;;;;14.50;10.25;;;;;;;;5024688;28;45467;-70
2021/11/14 01:33:29;;;;;;;;;11.25;10.25;;;;;;;;5025694;28;45433;-70
2021/11/14 01:35:55;;;;;;;;;13.75;12.00;;;;;;;;5032706;28;45345;-70
2021/11/14 01:38:21;;;;;;;;;11.75;10.00;;;;;;;;5033711;28;46457;-70
2021/11/14 01:40:48;;;;;;;;;12.00;9.00;;;;;;;;5023134;28;45423;-70
2021/11/14 01:43:14;;;;;;;;;8.75;6.75;;;;;;;;5028185;28;45418;-70
2021/11/14 01:45:41;;;;;;;;;9.75;5.00;;;;;;;;5033502;28;45508;-70
2021/11/14 01:48:06;;;;;;;;;12.50;11.00;;;;;;;;5035476;28;45454;-70
2021/11/14 01:50:32;;;;;;;;;9.00;9.00;;;;;;;;5024697;28;45327;-70
2021/11/14 01:52:57;;;;;;;;;13.00;11.00;;;;;;;;5018657;28;45488;-70
2021/11/14 01:55:25;;;;;;;;;11.50;9.00;;;;;;;;5006556;28;45469;-70
2021/11/14 01:57:51;;;;;;;;;9.25;7.00;;;;;;;;5023189;28;46380;-70
2021/11/14 02:00:19;;;;;;;;;9.25;9.00;;;;;;;;5033207;28;45741;-70
2021/11/14 02:02:44;;;;;;;;;10.00;9.00;;;;;;;;5025950;28;45600;-70
2021/11/14 02:05:09;;;;;;;;;10.25;9.75;;;;;;;;5017161;28;45394;-69
2021/11/14 02:07:35;;;;;;;;;9.25;8.00;;;;;;;;5024351;28;45498;-69
2021/11/14 02:10:00;;;;;;;;;10.25;9.75;;;;;;;;5023830;28;45406;-70
2021/11/14 02:12:25;;;;;;;;;10.00;10.00;;;;;;;;5022359;28;45815;-70
2021/11/14 02:14:51;;;;;;;;;7.00;7.00;;;;;;;;5003893;28;45348;-70
2021/11/14 02:17:16;;;;;;;;;12.33;9.67;;;;;;;;5020281;28;46275;-70
2021/11/14 02:19:41;;;;;;;;;13.33;9.00;;;;;;;;5023078;28;45395;-70
2021/11/14 02:22:06;;;;;;;;;11.75;8.25;;;;;;;;5022748;28;45461;-70
2021/11/14 02:24:32;;;;;;;;;9.00;9.00;;;;;;;;5028055;28;45600;-70
2021/11/14 02:26:57;;;;;;;;;10.00;10.00;;;;;;;;5022584;28;45293;-70
2021/11/14 02:29:22;;;;;;;;;12.67;11.00;;;;;;;;5019110;28;45621;-70
2021/11/14 02:31:47;;;;;;;;;13.33;11.00;;;;;;;;5024186;28;45405;-70
2021/11/14 02:34:13;;;;;;;;;11.75;10.00;;;;;;;;5026010;28;45285;-70
2021/11/14 02:36:39;;;;;;;;;13.25;8.50;;;;;;;;5023525;28;45603;-70
2021/11/14 02:39:05;;;;;;;;;14.50;8.75;;;;;;;;5022772;28;45506;-70
2021/11/14 02:41:30;;;;;;;;;15.50;10.50;;;;;;;;5019529;28;45685;-70
2021/11/14 02:43:57;;;;;;;;;12.67;10.67;;;;;;;;5030458;28;45493;-70
2021/11/14 02:46:23;;;;;;;;;11.00;9.50;;;;;;;;5031727;28;46162;-70
2021/11/14 02:48:48;;;;;;;;;11.75;8.00;;;;;;;;5023182;28;45447;-70
2021/11/14 02:51:16;;;;;;;;;11.00;10.00;;;;;;;;5019544;28;45486;-70
2021/11/14 02:53:41;;;;;;;;;11.25;9.50;;;;;;;;5031741;28;45432;-70
2021/11/14 02:56:07;;;;;;;;;14.25;10.50;;;;;;;;5034332;28;45604;-70
2021/11/14 02:58:32;;;;;;;;;9.75;9.50;;;;;;;;5032208;28;45508;-70
2021/11/14 03:01:04;;;;;;;;;13.00;9.00;;;;;;;;5026703;28;45556;-70
2021/11/14 03:03:30;;;;;;;;;8.00;6.25;;;;;;;;5026923;28;45582;-70
2021/11/14 03:05:56;;;;;;;;;15.25;11.00;;;;;;;;5025325;28;46377;-70
2021/11/14 03:08:21;;;;;;;;;9.00;8.50;;;;;;;;5018365;28;45553;-70
2021/11/14 03:10:47;;;;;;;;;11.25;10.00;;;;;;;;5025685;28;45612;-70
2021/11/14 03:13:15;;;;;;;;;10.00;8.67;;;;;;;;5025442;28;45390;-70
2021/11/14 03:15:42;;;;;;;;;14.00;11.00;;;;;;;;5027182;28;45433;-70
2021/11/14 03:18:07;;;;;;;;;10.00;10.00;;;;;;;;5033640;28;45430;-70
2021/11/14 03:20:33;;;;;;;;;10.00;9.75;;;;;;;;5018409;28;45462;-70
2021/11/14 03:22:58;;;;;;;;;13.00;10.50;;;;;;;;5030701;28;45528;-70
2021/11/14 03:25:25;;;;;;;;;10.00;10.00;;;;;;;;5024207;28;46599;-70
2021/11/14 03:27:51;;;;;;;;;10.75;9.00;;;;;;;;5023144;28;46007;-70
2021/11/14 03:30:18;;;;;;;;;10.75;10.75;;;;;;;;5001475;28;45441;-70
2021/11/14 03:32:43;;;;;;;;;16.00;11.00;;;;;;;;5030435;28;45466;-70
2021/11/14 03:35:08;;;;;;;;;15.00;12.33;;;;;;;;5018476;28;45387;-70
2021/11/14 03:37:34;;;;;;;;;14.25;10.50;;;;;;;;5022703;28;45382;-70
2021/11/14 03:39:59;;;;;;;;;11.50;10.75;;;;;;;;5024784;28;45328;-70
2021/11/14 03:42:24;;;;;;;;;10.50;9.00;;;;;;;;5030278;28;45855;-70
2021/11/14 03:44:50;;;;;;;;;12.33;9.33;;;;;;;;5031155;28;45378;-70
2021/11/14 03:47:15;;;;;;;;;9.50;9.50;;;;;;;;5013843;28;45349;-70
2021/11/14 03:49:40;;;;;;;;;12.67;10.67;;;;;;;;5017426;28;45479;-70
2021/11/14 03:52:10;;;;;;;;;10.00;8.00;;;;;;;;5025571;28;45209;-70
2021/11/14 03:54:36;;;;;;;;;10.25;8.25;;;;;;;;5030429;28;46717;-70
2021/11/14 03:57:02;;;;;;;;;12.00;8.50;;;;;;;;5020299;28;45580;-70
2021/11/14 03:59:27;;;;;;;;;13.00;8.50;;;;;;;;5032856;28;45651;-70
2021/11/14 04:01:52;;;;;;;;;13.67;11.00;;;;;;;;5029625;28;45480;-70
2021/11/14 04:04:17;;;;;;;;;16.00;10.00;;;;;;;;5024390;28;46811;-70
2021/11/14 04:06:42;;;;;;;;;8.33;7.00;;;;;;;;5022325;28;45564;-70
2021/11/14 04:09:08;;;;;;;;;8.00;8.00;;;;;;;;5019474;28;45423;-70
2021/11/14 04:11:33;;;;;;;;;8.00;8.00;;;;;;;;5033138;28;45285;-70
2021/11/14 04:13:58;;;;;;;;;9.33;8.67;;;;;;;;5033658;28;45306;-70
2021/11/14 04:16:23;;;;;;;;;11.75;8.50;;;;;;;;5032293;28;45312;-70
2021/11/14 04:18:49;;;;;;;;;11.33;9.67;;;;;;;;5028533;28;45449;-70
2021/11/14 04:21:14;;;;;;;;;11.67;9.33;;;;;;;;5028191;28;45300;-70
2021/11/14 04:23:39;;;;;;;;;11.67;10.00;;;;;;;;5033204;28;45320;-70
2021/11/14 04:26:05;;;;;;;;;11.25;11.25;;;;;;;;5029446;28;45366;-70
2021/11/14 04:28:31;;;;;;;;;10.50;9.00;;;;;;;;5029938;28;45513;-70
2021/11/14 04:30:56;;;;;;;;;13.00;10.25;;;;;;;;5025142;28;45451;-70
2021/11/14 04:33:22;;;;;;;;;11.25;9.75;;;;;;;;5021952;28;46434;-70
2021/11/14 04:35:48;;;;;;;;;13.00;6.75;;;;;;;;5017856;28;47236;-70
2021/11/14 04:38:13;;;;;;;;;9.00;9.00;;;;;;;;5017765;28;45527;-70
2021/11/14 04:40:42;;;;;;;;;12.00;7.25;;;;;;;;5021736;28;45542;-70
2021/11/14 04:43:08;;;;;;;;;11.25;9.25;;;;;;;;5022444;28;45541;-70
2021/11/14 04:45:33;;;;;;;;;10.50;6.00;;;;;;;;5022403;28;45492;-70
2021/11/14 04:47:59;;;;;;;;;9.75;8.50;;;;;;;;5032558;28;45640;-70
2021/11/14 04:50:24;;;;;;;;;11.00;9.00;;;;;;;;5017088;28;45314;-70
2021/11/14 04:52:51;;;;;;;;;11.25;9.25;;;;;;;;5020453;28;45324;-70
2021/11/14 04:55:16;;;;;;;;;12.25;9.00;;;;;;;;5026288;28;45910;-70
2021/11/14 04:57:41;;;;;;;;;13.50;10.25;;;;;;;;5020285;28;45472;-70
2021/11/14 05:00:09;;;;;;;;;12.75;9.00;;;;;;;;5035203;28;45410;-70
2021/11/14 05:02:34;;;;;;;;;9.75;8.00;;;;;;;;5020428;28;46562;-70
2021/11/14 05:05:00;;;;;;;;;11.33;8.67;;;;;;;;5022303;28;45416;-70
2021/11/14 05:07:25;;;;;;;;;10.00;8.00;;;;;;;;5025385;28;45370;-70
2021/11/14 05:09:50;;;;;;;;;10.33;9.00;;;;;;;;5028301;28;45424;-70
2021/11/14 05:12:15;;;;;;;;;11.25;7.50;;;;;;;;5030039;28;46019;-70
2021/11/14 05:14:41;;;;;;;;;11.67;9.33;;;;;;;;5024958;28;45319;-70
2021/11/14 05:17:06;;;;;;;;;13.00;10.33;;;;;;;;5018808;28;45377;-70
2021/11/14 05:19:31;;;;;;;;;14.00;12.00;;;;;;;;5031262;28;45374;-70
2021/11/14 05:21:56;;;;;;;;;12.33;10.00;;;;;;;;5012277;28;47211;-70
2021/11/14 05:24:21;;;;;;;;;11.33;9.00;;;;;;;;5021125;28;45469;-70
2021/11/14 05:26:47;;;;;;;;;10.67;8.67;;;;;;;;5035324;28;45489;-70
2021/11/14 05:29:13;;;;;;;;;4.25;4.00;;;;;;;;5021239;28;45482;-70
2021/11/14 05:31:38;;;;;;;;;10.67;6.33;;;;;;;;5032293;28;46513;-70
2021/11/14 05:34:03;;;;;;;;;15.00;8.67;;;;;;;;5028847;28;45274;-70
2021/11/14 05:36:28;;;;;;;;;11.00;9.67;;;;;;;;5024791;28;45301;-70
2021/11/14 05:38:53;;;;;;;;;9.33;9.00;;;;;;;;5025166;28;45506;-70
2021/11/14 05:41:19;;;;;;;;;10.00;9.33;;;;;;;;5019758;28;45276;-70
2021/11/14 05:43:44;;;;;;;;;12.00;11.00;;;;;;;;5022883;28;45526;-70
2021/11/14 05:46:09;;;;;;;;;10.50;7.75;;;;;;;;5030061;28;45454;-70
2021/11/14 05:48:35;;;;;;;;;12.00;8.33;;;;;;;;5031949;28;45477;-70
2021/11/14 05:51:00;;;;;;;;;4.00;3.67;;;;;;;;5032633;28;47248;-70
2021/11/14 05:53:26;;;;;;;;;10.50;7.25;;;;;;;;5028843;28;46183;-70
2021/11/14 05:55:51;;;;;;;;;11.50;6.75;;;;;;;;5024105;28;45368;-70
2021/11/14 06:01:19;;;;;;;;;8.25;7.00;;;;;;;;5028851;28;47689;-70
2021/11/14 06:04:10;;;;;;;;;8.25;7.25;;;;;;;;5024227;28;45738;-70
2021/11/14 06:06:29;;;;;;;;;9.25;7.00;;;;;;;;5026985;28;45421;-70
2021/11/14 06:08:54;;;;;;;;;8.33;5.00;;;;;;;;5031118;28;45411;-70
2021/11/14 06:11:22;;;;;;;;;9.67;6.67;;;;;;;;5016737;28;46487;-70
2021/11/14 06:13:49;;;;;;;;;7.00;4.50;;;;;;;;5022264;28;45300;-70
2021/11/14 06:16:14;;;;;;;;;13.00;9.00;;;;;;;;5030159;28;45463;-70
2021/11/14 06:18:39;;;;;;;;;5.33;5.33;;;;;;;;5031555;28;45410;-70
2021/11/14 06:21:04;;;;;;;;;6.67;5.33;;;;;;;;5035268;28;45697;-70
2021/11/14 06:23:29;;;;;;;;;8.00;6.33;;;;;;;;5001624;28;45594;-70
2021/11/14 06:25:54;;;;;;;;;9.00;8.67;;;;;;;;5034341;28;45355;-70
2021/11/14 06:28:20;;;;;;;;;5.67;5.67;;;;;;;;5028045;28;45449;-70
2021/11/14 06:30:45;;;;;;;;;5.00;5.00;;;;;;;;5023814;28;45500;-70
2021/11/14 06:33:10;;;;;;;;;7.25;5.75;;;;;;;;5000708;28;45358;-70
2021/11/14 06:35:36;;;;;;;;;8.33;7.33;;;;;;;;5017503;28;45389;-70
2021/11/14 06:38:01;;;;;;;;;8.00;8.00;;;;;;;;5024242;28;45549;-70
2021/11/14 06:40:26;;;;;;;;;6.00;5.00;;;;;;;;5024395;28;46012;-70
2021/11/14 06:42:51;;;;;;;;;10.00;7.75;;;;;;;;5007805;28;45727;-70
2021/11/14 06:45:17;;;;;;;;;10.00;8.00;;;;;;;;5030377;28;45468;-70
2021/11/14 06:47:42;;;;;;;;;9.00;8.50;;;;;;;;5033976;28;45478;-70
2021/11/14 06:50:10;;;;;;;;;7.75;7.75;;;;;;;;5031470;28;46407;-70
2021/11/14 06:52:35;;;;;;;;;9.00;9.00;;;;;;;;5023254;28;45820;-70
2021/11/14 06:55:00;;;;;;;;;8.75;8.50;;;;;;;;5023398;28;45336;-70
2021/11/14 06:57:26;;;;;;;;;10.00;9.00;;;;;;;;5027888;28;45432;-70
2021/11/14 06:59:51;;;;;;;;;7.33;6.67;;;;;;;;5031490;28;45938;-70
2021/11/14 07:02:17;;;;;;;;;11.67;10.33;;;;;;;;5019308;28;45555;-70
2021/11/14 07:04:42;;;;;;;;;15.00;8.25;;;;;;;;5022773;28;45352;-70
2021/11/14 07:07:07;;;;;;;;;9.75;9.00;;;;;;;;5016871;28;45554;-70
2021/11/14 07:09:32;;;;;;;;;9.00;8.67;;;;;;;;5023990;28;45468;-70
2021/11/14 07:11:58;;;;;;;;;12.67;7.67;;;;;;;;5021214;28;45469;-70
2021/11/14 07:14:24;;;;;;;;;8.50;7.25;;;;;;;;5021657;28;45345;-70
2021/11/14 07:16:49;;;;;;;;;9.50;8.00;;;;;;;;5029036;28;45510;-70
2021/11/14 07:19:15;;;;;;;;;12.50;11.50;;;;;;;;5010476;28;47184;-70
2021/11/14 07:21:40;;;;;;;;;11.00;9.00;;;;;;;;5024704;28;45509;-70
2021/11/14 07:24:06;;;;;;;;;9.00;9.00;;;;;;;;5019054;28;45744;-70
2021/11/14 07:26:31;;;;;;;;;11.50;8.75;;;;;;;;5018476;28;45480;-70
2021/11/14 07:28:57;;;;;;;;;8.00;5.67;;;;;;;;5028088;28;45499;-70
2021/11/14 07:31:22;;;;;;;;;11.75;10.00;;;;;;;;5033315;28;45288;-70
2021/11/14 07:33:48;;;;;;;;;10.00;9.00;;;;;;;;5033096;28;45466;-70
2021/11/14 07:36:13;;;;;;;;;9.33;9.33;;;;;;;;5033342;28;45576;-70
2021/11/14 07:38:38;;;;;;;;;9.67;9.33;;;;;;;;5020536;28;45491;-70
2021/11/14 07:41:03;;;;;;;;;8.67;7.67;;;;;;;;5029688;28;45205;-70
2021/11/14 07:43:28;;;;;;;;;6.50;5.25;;;;;;;;5024933;28;45593;-70
2021/11/14 07:45:54;;;;;;;;;8.67;8.00;;;;;;;;5028811;28;45419;-70
2021/11/14 07:48:19;;;;;;;;;12.25;11.25;;;;;;;;5028397;28;45392;-70
2021/11/14 07:50:45;;;;;;;;;12.67;9.67;;;;;;;;5016784;28;45449;-70
2021/11/14 07:53:10;;;;;;;;;18.00;10.00;;;;;;;;5018991;28;45414;-70
2021/11/14 07:55:35;;;;;;;;;7.50;6.25;;;;;;;;5033735;28;45331;-70
2021/11/14 07:58:04;;;;;;;;;9.67;6.33;;;;;;;;5025408;28;45531;-70
2021/11/14 08:00:29;;;;;;;;;9.75;8.75;;;;;;;;5030945;28;45803;-70
2021/11/14 08:02:55;;;;;;;;;12.50;10.25;;;;;;;;5018562;28;45430;-70
2021/11/14 08:05:20;;;;;;;;;15.00;9.33;;;;;;;;5026826;28;45391;-70
2021/11/14 08:07:45;;;;;;;;;11.00;9.25;;;;;;;;5021224;28;45551;-70
2021/11/14 08:10:12;;;;;;;;;11.00;6.00;;;;;;;;5021431;28;45489;-70
2021/11/14 08:12:37;;;;;;;;;9.50;6.50;;;;;;;;5022041;28;45560;-70
2021/11/14 08:15:02;;;;;;;;;11.00;10.00;;;;;;;;5021558;28;45391;-70
2021/11/14 08:17:28;;;;;;;;;9.75;9.00;;;;;;;;5018459;28;46003;-70
2021/11/14 08:19:55;;;;;;;;;9.33;6.33;;;;;;;;5027380;28;45465;-71
2021/11/14 08:22:21;;;;;;;;;11.75;8.50;;;;;;;;5027747;28;45412;-71
2021/11/14 08:24:46;;;;;;;;;8.00;5.50;;;;;;;;5023749;28;45651;-70
2021/11/14 08:27:11;;;;;;;;;10.00;7.33;;;;;;;;5026347;28;46369;-70
2021/11/14 08:29:37;;;;;;;;;11.33;8.00;;;;;;;;5020469;28;45535;-70
2021/11/14 08:32:02;;;;;;;;;8.33;8.33;;;;;;;;5022029;28;45472;-70
2021/11/14 08:34:27;;;;;;;;;7.25;6.50;;;;;;;;5022760;28;45746;-70
2021/11/14 08:36:53;;;;;;;;;7.33;7.33;;;;;;;;5020117;28;46671;-69
2021/11/14 08:39:18;;;;;;;;;12.00;11.00;;;;;;;;5024645;28;45533;-70
2021/11/14 08:41:43;;;;;;;;;10.67;10.67;;;;;;;;5025377;28;45582;-71
2021/11/14 08:44:08;;;;;;;;;10.67;9.67;;;;;;;;5024523;28;45466;-71
2021/11/14 08:46:37;;;;;;;;;8.33;8.33;;;;;;;;5026352;28;46472;-71
2021/11/14 08:49:02;;;;;;;;;11.00;7.00;;;;;;;;5032284;28;45680;-71
2021/11/14 08:51:27;;;;;;;;;10.25;10.25;;;;;;;;5027043;28;45314;-71
2021/11/14 08:53:58;;;;;;;;;10.33;10.00;;;;;;;;5032638;28;45557;-71
2021/11/14 08:56:25;;;;;;;;;12.25;8.75;;;;;;;;5026238;28;45699;-71
2021/11/14 08:58:50;;;;;;;;;12.75;10.25;;;;;;;;5026737;28;45935;-71
2021/11/14 09:01:16;;;;;;;;;16.00;7.00;;;;;;;;5025655;28;45517;-70
2021/11/14 09:03:41;;;;;;;;;11.67;8.00;;;;;;;;5035616;28;45540;-70
2021/11/14 09:06:06;;;;;;;;;10.00;8.00;;;;;;;;5030795;28;46112;-71
2021/11/14 09:08:31;;;;;;;;;12.75;8.00;;;;;;;;5035340;28;45644;-70
2021/11/14 09:10:57;;;;;;;;;10.00;7.00;;;;;;;;5031210;28;45363;-71
2021/11/14 09:13:23;;;;;;;;;10.50;9.50;;;;;;;;5033652;28;45540;-71
2021/11/14 09:15:48;;;;;;;;;7.25;6.50;;;;;;;;5031785;28;45616;-71
2021/11/14 09:18:14;;;;;;;;;8.25;8.25;;;;;;;;5027389;28;45434;-71
2021/11/14 09:20:39;;;;;;;;;5.00;5.00;;;;;;;;5036671;28;45454;-70
2021/11/14 09:23:05;;;;;;;;;6.75;5.00;;;;;;;;5035236;28;45300;-70
2021/11/14 09:25:31;;;;;;;;;6.67;6.67;;;;;;;;5024565;28;45702;-70
2021/11/14 09:27:56;;;;;;;;;9.00;8.00;;;;;;;;5017108;28;45760;-71
2021/11/14 09:30:22;;;;;;;;;6.75;6.75;;;;;;;;5034332;28;45916;-71
2021/11/14 09:32:48;;;;;;;;;7.25;5.75;;;;;;;;5026165;28;45704;-71
2021/11/14 09:35:13;;;;;;;;;8.50;6.25;;;;;;;;5034994;28;45469;-71
2021/11/14 09:37:39;;;;;;;;;6.00;5.25;;;;;;;;5036095;28;45605;-71
2021/11/14 09:40:05;;;;;;;;;8.50;7.00;;;;;;;;5026280;28;45522;-71
2021/11/14 09:42:31;;;;;;;;;7.00;7.00;;;;;;;;5029336;28;45370;-71
2021/11/14 09:44:58;;;;;;;;;5.25;5.25;;;;;;;;5030737;28;46269;-71
2021/11/14 09:47:24;;;;;;;;;9.50;6.00;;;;;;;;5009101;28;45685;-71
2021/11/14 09:49:49;;;;;;;;;7.00;6.25;;;;;;;;5029629;28;45559;-71
2021/11/14 09:52:15;;;;;;;;;8.50;6.50;;;;;;;;5027142;28;45451;-70
2021/11/14 09:54:40;;;;;;;;;107.00;95.33;;;;;;;;5034910;28;46646;-71
2021/11/14 09:57:06;;;;;;;;;9.75;8.75;;;;;;;;5035652;28;45426;-71
2021/11/14 09:59:31;;;;;;;;;8.75;7.00;;;;;;;;5011507;28;45507;-70
2021/11/14 10:01:58;;;;;;;;;6.50;6.25;;;;;;;;5028693;28;45537;-72
2021/11/14 10:04:23;;;;;;;;;10.75;7.75;;;;;;;;5024562;28;46965;-71
2021/11/14 10:06:56;;;;;;;;;6.75;6.75;;;;;;;;5028898;28;45532;-71
2021/11/14 10:09:32;;;;;;;;;7.00;7.00;;;;;;;;5029733;28;45524;-71
2021/11/14 10:12:08;;;;;;;;;9.50;8.00;;;;;;;;5035703;28;45417;-71
2021/11/14 10:14:33;;;;;;;;;10.75;8.00;;;;;;;;5033852;28;46799;-71
2021/11/14 10:16:58;;;;;;;;;8.67;7.33;;;;;;;;5030703;28;45538;-71
2021/11/14 10:19:24;;;;;;;;;9.67;8.67;;;;;;;;5025908;28;45480;-71
2021/11/14 10:21:49;;;;;;;;;9.33;8.33;;;;;;;;5025507;28;45559;-71
2021/11/14 10:24:15;;;;;;;;;13.25;10.25;;;;;;;;5027018;28;46297;-72
2021/11/14 10:26:40;;;;;;;;;9.50;8.25;;;;;;;;5017486;28;45736;-71
2021/11/14 10:29:10;;;;;;;;;14.50;11.25;;;;;;;;5031012;28;45334;-71
2021/11/14 10:31:36;;;;;;;;;12.00;10.25;;;;;;;;5035184;28;45490;-72
2021/11/14 10:34:02;;;;;;;;;16.00;12.50;;;;;;;;5028963;28;46442;-71
2021/11/14 10:36:27;;;;;;;;;14.00;13.25;;;;;;;;5026930;28;46010;-73
2021/11/14 10:39:03;;;;;;;;;14.75;12.75;;;;;;;;5028852;28;45467;-72
2021/11/14 10:41:28;;;;;;;;;19.00;13.75;;;;;;;;5033242;28;45554;-73
2021/11/14 10:44:09;;;;;;;;;17.25;13.25;;;;;;;;5028741;28;45800;-70
2021/11/14 10:46:35;;;;;;;;;13.50;10.50;;;;;;;;5023500;28;45951;-70
2021/11/14 10:49:04;;;;;;;;;40.75;33.75;;;;;;;;5023640;28;45765;-71
2021/11/14 10:51:29;;;;;;;;;13.00;10.00;;;;;;;;5024628;28;45718;-70
2021/11/14 10:53:54;;;;;;;;;14.00;12.33;;;;;;;;5026514;28;46368;-70
2021/11/14 10:56:19;;;;;;;;;15.33;13.67;;;;;;;;5022783;28;45334;-69
2021/11/14 10:58:45;;;;;;;;;11.33;10.67;;;;;;;;5021930;28;45571;-68
2021/11/14 11:01:12;;;;;;;;;14.50;11.75;;;;;;;;5027143;28;45552;-68
2021/11/14 11:03:40;;;;;;;;;21.00;12.50;;;;;;;;5025416;28;46286;-68
2021/11/14 11:06:06;;;;;;;;;15.50;13.50;;;;;;;;5027207;28;45502;-69
2021/11/14 11:08:32;;;;;;;;;22.25;20.00;;;;;;;;5027087;28;45541;-69
2021/11/14 11:11:06;;;;;;;;;17.75;15.00;;;;;;;;5031531;28;45459;-69
2021/11/14 11:13:35;;;;;;;;;16.25;14.00;;;;;;;;5028091;28;47235;-69
2021/11/14 11:16:04;;;;;;;;;16.25;14.75;;;;;;;;5025084;28;45598;-69
2021/11/14 11:18:29;;;;;;;;;16.25;14.75;;;;;;;;5026031;28;45587;-68
2021/11/14 11:20:56;;;;;;;;;18.33;15.00;;;;;;;;5034714;28;45560;-69
2021/11/14 11:23:22;;;;;;;;;14.25;13.75;;;;;;;;5025079;28;45523;-71
2021/11/14 11:25:49;;;;;;;;;21.75;15.75;;;;;;;;5030364;28;45728;-70
2021/11/14 11:28:16;;;;;;;;;16.50;13.75;;;;;;;;5032101;28;45415;-70
2021/11/14 11:30:43;;;;;;;;;13.00;11.75;;;;;;;;5031051;28;45579;-69
2021/11/14 11:33:09;;;;;;;;;29.50;22.75;;;;;;;;5022969;28;46517;-69
2021/11/14 11:35:35;;;;;;;;;23.33;15.33;;;;;;;;5023773;28;45876;-71
2021/11/14 11:38:02;;;;;;;;;26.00;20.00;;;;;;;;5024979;28;45493;-70
2021/11/14 11:40:27;;;;;;;;;47.75;36.50;;;;;;;;5021582;28;45534;-70
2021/11/14 11:42:53;;;;;;;;;32.00;27.00;;;;;;;;5030165;28;45773;-70
2021/11/14 11:45:25;;;;;;;;;21.25;17.75;;;;;;;;5023247;28;45431;-70
2021/11/14 11:47:50;;;;;;;;;20.25;13.75;;;;;;;;5022239;28;45533;-69
2021/11/14 11:50:16;;;;;;;;;16.75;15.25;;;;;;;;5023819;28;45613;-69
2021/11/14 11:52:42;;;;;;;;;22.00;16.00;;;;;;;;5024541;28;45642;-68
2021/11/14 11:55:31;;;;;;;;;24.00;19.00;;;;;;;;5025161;28;45745;-68
2021/11/14 11:58:07;;;;;;;;;26.25;20.50;;;;;;;;5026055;28;45813;-68
2021/11/14 12:00:33;;;;;;;;;23.75;15.50;;;;;;;;5032128;28;47342;-68
2021/11/14 12:02:58;;;;;;;;;21.67;17.33;;;;;;;;5029663;28;45589;-68
2021/11/14 12:05:25;;;;;;;;;20.67;15.00;;;;;;;;5018428;28;45355;-68
2021/11/14 12:07:51;;;;;;;;;25.25;17.75;;;;;;;;5024041;28;45382;-68
2021/11/14 12:10:22;;;;;;;;;19.00;13.75;;;;;;;;5034529;28;45631;-68
2021/11/14 12:12:48;;;;;;;;;17.75;15.75;;;;;;;;5033004;28;47266;-68
2021/11/14 12:15:16;;;;;;;;;16.50;11.75;;;;;;;;5025730;28;45562;-68
2021/11/14 12:17:49;;;;;;;;;20.75;17.50;;;;;;;;5035944;28;45426;-68
2021/11/14 12:20:15;;;;;;;;;15.50;12.25;;;;;;;;5035208;28;45297;-68
2021/11/14 12:22:42;;;;;;;;;14.25;13.75;;;;;;;;5027553;28;45927;-68
2021/11/14 12:25:08;;;;;;;;;16.75;15.50;;;;;;;;5026256;28;45514;-68
2021/11/14 12:27:34;;;;;;;;;16.00;13.75;;;;;;;;5027262;28;46095;-68
2021/11/14 12:30:05;;;;;;;;;18.50;17.25;;;;;;;;5027009;28;45610;-68
2021/11/14 12:32:41;;;;;;;;;17.00;15.75;;;;;;;;5027048;28;46966;-68
2021/11/14 12:35:07;;;;;;;;;19.50;13.75;;;;;;;;5029036;28;45886;-68
2021/11/14 12:37:32;;;;;;;;;21.50;17.75;;;;;;;;5027622;28;45603;-68
2021/11/14 12:40:09;;;;;;;;;24.00;17.00;;;;;;;;5027260;28;46766;-68
2021/11/14 12:42:35;;;;;;;;;20.00;14.00;;;;;;;;5030864;28;45438;-68
2021/11/14 12:45:03;;;;;;;;;17.25;15.25;;;;;;;;5022926;28;48024;-68
2021/11/14 12:47:30;;;;;;;;;15.75;15.75;;;;;;;;5027021;28;45548;-68
2021/11/14 12:50:11;;;;;;;;;30.25;21.25;;;;;;;;5025226;28;45575;-68
2021/11/14 12:52:38;;;;;;;;;22.50;18.00;;;;;;;;5027105;28;46754;-68
2021/11/14 12:55:08;;;;;;;;;23.25;18.00;;;;;;;;5024348;28;45610;-68
2021/11/14 12:57:52;;;;;;;;;29.75;25.50;;;;;;;;5004116;28;45664;-68
2021/11/14 13:00:47;;;;;;;;;18.00;14.00;;;;;;;;5027714;28;45581;-68
2021/11/14 13:03:38;;;;;;;;;14.75;13.25;;;;;;;;4928622;28;45623;-68
2021/11/14 13:06:14;;;;;;;;;17.50;10.00;;;;;;;;4923217;28;46229;-68
2021/11/14 13:08:40;;;;;;;;;14.50;10.75;;;;;;;;4927580;28;45767;-68
2021/11/14 13:11:07;;;;;;;;;10.50;9.75;;;;;;;;4929897;28;45503;-68
2021/11/14 13:13:36;;;;;;;;;16.75;9.50;;;;;;;;4934750;28;46984;-68
2021/11/14 13:16:06;;;;;;;;;13.75;9.00;;;;;;;;4934780;28;45901;-68
2021/11/14 13:18:33;;;;;;;;;17.00;14.00;;;;;;;;4931849;28;45519;-68
2021/11/14 13:21:00;;;;;;;;;13.25;9.75;;;;;;;;4924701;28;45532;-69
2021/11/14 13:23:26;;;;;;;;;16.75;11.50;;;;;;;;4920999;28;46591;-68
2021/11/14 13:26:00;;;;;;;;;13.25;10.50;;;;;;;;4935890;28;46228;-68
2021/11/14 13:28:25;;;;;;;;;13.25;10.00;;;;;;;;4930447;28;45568;-69
2021/11/14 13:30:51;;;;;;;;;11.00;11.00;;;;;;;;4931661;28;45545;-69
2021/11/14 13:33:17;;;;;;;;;14.25;10.00;;;;;;;;4935995;28;45837;-69
2021/11/14 13:35:42;;;;;;;;;19.25;9.75;;;;;;;;4936194;28;45790;-68
2021/11/14 13:38:07;;;;;;;;;12.50;9.00;;;;;;;;4935487;28;45644;-68
2021/11/14 13:40:33;;;;;;;;;13.00;7.00;;;;;;;;5024188;28;45291;-70
2021/11/14 13:43:00;;;;;;;;;15.33;12.67;;;;;;;;5034169;28;45597;-72
2021/11/14 13:45:28;;;;;;;;;52.50;41.25;;;;;;;;5031140;28;45434;-72
2021/11/14 13:48:00;;;;;;;;;10.50;6.75;;;;;;;;5025782;28;45481;-72
2021/11/14 13:50:28;;;;;;;;;17.00;14.00;;;;;;;;5029008;28;45513;-70
2021/11/14 13:52:53;;;;;;;;;8.50;8.50;;;;;;;;5027485;28;46361;-71
2021/11/14 13:55:18;;;;;;;;;17.50;14.75;;;;;;;;5033002;28;45506;-70
2021/11/14 13:57:46;;;;;;;;;18.25;14.00;;;;;;;;5029343;28;45493;-71
2021/11/14 14:00:17;;;;;;;;;12.00;8.50;;;;;;;;5034332;28;45387;-70
2021/11/14 14:02:42;;;;;;;;;17.00;14.00;;;;;;;;5028120;28;45373;-70
2021/11/14 14:05:09;;;;;;;;;19.33;16.67;;;;;;;;5030401;28;45707;-71
2021/11/14 14:07:37;;;;;;;;;19.75;18.00;;;;;;;;5032953;28;46589;-70
2021/11/14 14:10:07;;;;;;;;;18.25;17.50;;;;;;;;5027991;28;45573;-71
2021/11/14 14:12:34;;;;;;;;;20.25;16.25;;;;;;;;5031075;28;46253;-71
2021/11/14 14:15:02;;;;;;;;;21.75;16.50;;;;;;;;5031005;28;45741;-71
2021/11/14 14:17:28;;;;;;;;;20.25;18.50;;;;;;;;5033257;28;45519;-70
2021/11/14 14:19:57;;;;;;;;;17.25;15.00;;;;;;;;5033619;28;45383;-70
2021/11/14 14:22:35;;;;;;;;;21.00;15.75;;;;;;;;5027151;28;46565;-70
2021/11/14 14:25:01;;;;;;;;;18.50;16.00;;;;;;;;5027967;28;45748;-70
2021/11/14 14:27:26;;;;;;;;;15.50;12.50;;;;;;;;5008237;28;45482;-70